sensor_id;sensor_type;location;lat;lon;timestamp;temperature;humidity
42147;DHT22;27815;43.410;11.852;2023-04-01T00:03:06;14.50;69.20
42147;DHT22;27815;43.410;11.852;2023-04-01T00:07:09;14.50;69.40
42147;DHT22;27815;43.410;11.852;2023-04-01T00:11:13;14.40;69.90
42147;DHT22;27815;43.410;11.852;2023-04-01T00:15:16;14.30;70.00
42147;DHT22;27815;43.410;11.852;2023-04-01T00:19:18;14.30;70.40
42147;DHT22;27815;43.410;11.852;2023-04-01T00:23:21;14.30;70.80
42147;DHT22;27815;43.410;11.852;2023-04-01T00:27:24;14.10;71.20
42147;DHT22;27815;43.410;11.852;2023-04-01T00:31:27;14.10;71.80
42147;DHT22;27815;43.410;11.852;2023-04-01T00:35:34;14.00;72.10
42147;DHT22;27815;43.410;11.852;2023-04-01T00:39:37;14.00;72.50
42147;DHT22;27815;43.410;11.852;2023-04-01T00:43:40;14.00;72.80
42147;DHT22;27815;43.410;11.852;2023-04-01T00:47:43;13.90;73.00
42147;DHT22;27815;43.410;11.852;2023-04-01T00:51:46;13.80;73.20
42147;DHT22;27815;43.410;11.852;2023-04-01T00:55:55;13.80;73.30
42147;DHT22;27815;43.410;11.852;2023-04-01T00:59:59;13.80;73.40
42147;DHT22;27815;43.410;11.852;2023-04-01T01:04:06;13.80;73.40
42147;DHT22;27815;43.410;11.852;2023-04-01T01:08:15;13.80;73.30
42147;DHT22;27815;43.410;11.852;2023-04-01T01:16:31;13.70;73.40
42147;DHT22;27815;43.410;11.852;2023-04-01T01:29:08;13.60;73.70
42147;DHT22;27815;43.410;11.852;2023-04-01T01:33:18;13.60;73.60
42147;DHT22;27815;43.410;11.852;2023-04-01T01:37:25;13.60;73.30
42147;DHT22;27815;43.410;11.852;2023-04-01T01:41:29;13.60;72.80
42147;DHT22;27815;43.410;11.852;2023-04-01T01:45:33;13.70;72.30
42147;DHT22;27815;43.410;11.852;2023-04-01T01:49:36;13.70;72.20
42147;DHT22;27815;43.410;11.852;2023-04-01T01:53:41;13.70;71.30
42147;DHT22;27815;43.410;11.852;2023-04-01T01:57:44;13.80;70.80
42147;DHT22;27815;43.410;11.852;2023-04-01T02:01:51;13.80;70.30
42147;DHT22;27815;43.410;11.852;2023-04-01T02:05:57;13.80;70.10
42147;DHT22;27815;43.410;11.852;2023-04-01T02:10:02;13.80;69.80
42147;DHT22;27815;43.410;11.852;2023-04-01T02:18:22;13.70;69.90
42147;DHT22;27815;43.410;11.852;2023-04-01T02:22:34;13.60;70.00
42147;DHT22;27815;43.410;11.852;2023-04-01T02:26:40;13.70;70.00
42147;DHT22;27815;43.410;11.852;2023-04-01T02:30:43;13.60;69.80
42147;DHT22;27815;43.410;11.852;2023-04-01T02:34:47;13.60;69.60
42147;DHT22;27815;43.410;11.852;2023-04-01T02:38:50;13.60;69.30
42147;DHT22;27815;43.410;11.852;2023-04-01T02:42:55;13.70;69.00
42147;DHT22;27815;43.410;11.852;2023-04-01T02:46:58;13.60;68.90
42147;DHT22;27815;43.410;11.852;2023-04-01T02:51:01;13.70;68.50
42147;DHT22;27815;43.410;11.852;2023-04-01T02:55:04;13.70;68.30
42147;DHT22;27815;43.410;11.852;2023-04-01T02:59:07;13.70;67.80
42147;DHT22;27815;43.410;11.852;2023-04-01T03:03:10;13.70;67.50
42147;DHT22;27815;43.410;11.852;2023-04-01T03:07:13;13.70;66.90
42147;DHT22;27815;43.410;11.852;2023-04-01T03:11:16;13.70;66.80
42147;DHT22;27815;43.410;11.852;2023-04-01T03:15:18;13.70;66.80
42147;DHT22;27815;43.410;11.852;2023-04-01T03:19:21;13.70;66.80
42147;DHT22;27815;43.410;11.852;2023-04-01T03:23:24;13.70;66.50
42147;DHT22;27815;43.410;11.852;2023-04-01T03:27:28;13.70;66.40
42147;DHT22;27815;43.410;11.852;2023-04-01T03:31:32;13.70;66.20
42147;DHT22;27815;43.410;11.852;2023-04-01T03:35:35;13.60;66.10
42147;DHT22;27815;43.410;11.852;2023-04-01T03:39:38;13.60;66.10
42147;DHT22;27815;43.410;11.852;2023-04-01T03:43:41;13.60;66.00
42147;DHT22;27815;43.410;11.852;2023-04-01T03:47:43;13.50;66.00
42147;DHT22;27815;43.410;11.852;2023-04-01T03:51:51;13.40;65.90
42147;DHT22;27815;43.410;11.852;2023-04-01T03:55:55;13.20;65.80
42147;DHT22;27815;43.410;11.852;2023-04-01T03:59:59;13.20;65.90
42147;DHT22;27815;43.410;11.852;2023-04-01T04:04:17;13.10;66.00
42147;DHT22;27815;43.410;11.852;2023-04-01T04:08:21;13.00;66.10
42147;DHT22;27815;43.410;11.852;2023-04-01T04:12:25;13.00;66.10
42147;DHT22;27815;43.410;11.852;2023-04-01T04:16:29;13.00;66.10
42147;DHT22;27815;43.410;11.852;2023-04-01T04:20:35;13.00;66.10
42147;DHT22;27815;43.410;11.852;2023-04-01T04:24:38;13.00;66.00
42147;DHT22;27815;43.410;11.852;2023-04-01T04:28:44;13.00;65.90
42147;DHT22;27815;43.410;11.852;2023-04-01T04:32:50;13.10;65.90
42147;DHT22;27815;43.410;11.852;2023-04-01T04:36:54;13.10;65.90
42147;DHT22;27815;43.410;11.852;2023-04-01T04:41:02;13.00;66.00
42147;DHT22;27815;43.410;11.852;2023-04-01T04:45:05;13.00;66.00
42147;DHT22;27815;43.410;11.852;2023-04-01T04:49:12;13.00;66.00
42147;DHT22;27815;43.410;11.852;2023-04-01T04:53:17;13.00;66.10
42147;DHT22;27815;43.410;11.852;2023-04-01T04:57:23;13.00;66.00
42147;DHT22;27815;43.410;11.852;2023-04-01T05:01:30;12.90;66.00
42147;DHT22;27815;43.410;11.852;2023-04-01T05:05:33;12.90;66.00
42147;DHT22;27815;43.410;11.852;2023-04-01T05:09:39;12.90;65.80
42147;DHT22;27815;43.410;11.852;2023-04-01T05:13:42;12.90;65.70
42147;DHT22;27815;43.410;11.852;2023-04-01T05:17:46;12.90;65.60
42147;DHT22;27815;43.410;11.852;2023-04-01T05:21:54;12.90;65.60
42147;DHT22;27815;43.410;11.852;2023-04-01T05:25:58;12.90;65.50
42147;DHT22;27815;43.410;11.852;2023-04-01T05:30:06;13.00;65.40
42147;DHT22;27815;43.410;11.852;2023-04-01T05:34:21;13.00;65.40
42147;DHT22;27815;43.410;11.852;2023-04-01T05:38:25;13.00;65.30
42147;DHT22;27815;43.410;11.852;2023-04-01T05:42:28;13.00;65.20
42147;DHT22;27815;43.410;11.852;2023-04-01T05:46:34;13.00;65.20
42147;DHT22;27815;43.410;11.852;2023-04-01T05:50:57;12.90;65.30
42147;DHT22;27815;43.410;11.852;2023-04-01T05:55:00;12.90;65.30
42147;DHT22;27815;43.410;11.852;2023-04-01T05:59:03;12.90;65.40
42147;DHT22;27815;43.410;11.852;2023-04-01T06:03:07;13.00;65.50
42147;DHT22;27815;43.410;11.852;2023-04-01T06:07:14;13.00;65.50
42147;DHT22;27815;43.410;11.852;2023-04-01T06:15:47;13.00;65.50
42147;DHT22;27815;43.410;11.852;2023-04-01T06:20:04;13.00;65.80
42147;DHT22;27815;43.410;11.852;2023-04-01T06:28:36;13.00;66.30
42147;DHT22;27815;43.410;11.852;2023-04-01T06:33:29;13.00;66.70
42147;DHT22;27815;43.410;11.852;2023-04-01T06:37:12;13.00;66.90
42147;DHT22;27815;43.410;11.852;2023-04-01T06:54:26;13.00;67.40
42147;DHT22;27815;43.410;11.852;2023-04-01T06:58:38;13.10;67.50
42147;DHT22;27815;43.410;11.852;2023-04-01T07:02:48;13.30;67.60
42147;DHT22;27815;43.410;11.852;2023-04-01T07:06:57;13.40;67.60
42147;DHT22;27815;43.410;11.852;2023-04-01T07:11:02;13.60;67.70
42147;DHT22;27815;43.410;11.852;2023-04-01T07:15:26;13.80;67.50
42147;DHT22;27815;43.410;11.852;2023-04-01T07:19:36;13.90;67.30
42147;DHT22;27815;43.410;11.852;2023-04-01T07:23:48;14.00;67.00
42147;DHT22;27815;43.410;11.852;2023-04-01T07:28:15;14.10;66.80
42147;DHT22;27815;43.410;11.852;2023-04-01T07:49:42;14.50;66.30
42147;DHT22;27815;43.410;11.852;2023-04-01T08:15:23;15.50;64.40
42147;DHT22;27815;43.410;11.852;2023-04-01T08:24:33;15.70;63.40
42147;DHT22;27815;43.410;11.852;2023-04-01T08:33:01;16.40;62.30
42147;DHT22;27815;43.410;11.852;2023-04-01T08:37:11;16.20;61.40
42147;DHT22;27815;43.410;11.852;2023-04-01T08:54:57;15.90;61.40
42147;DHT22;27815;43.410;11.852;2023-04-01T09:33:37;17.20;57.90
42147;DHT22;27815;43.410;11.852;2023-04-01T09:55:34;18.00;55.10
42147;DHT22;27815;43.410;11.852;2023-04-01T10:47:19;19.40;50.10
42147;DHT22;27815;43.410;11.852;2023-04-01T11:22:29;19.30;48.00
42147;DHT22;27815;43.410;11.852;2023-04-01T11:26:56;19.50;46.60
42147;DHT22;27815;43.410;11.852;2023-04-01T11:32:26;20.00;46.50
42147;DHT22;27815;43.410;11.852;2023-04-01T11:36:05;20.00;46.30
42147;DHT22;27815;43.410;11.852;2023-04-01T11:40:29;19.70;46.00
42147;DHT22;27815;43.410;11.852;2023-04-01T12:02:29;19.70;45.30
42147;DHT22;27815;43.410;11.852;2023-04-01T12:19:23;19.80;44.80
42147;DHT22;27815;43.410;11.852;2023-04-01T12:27:43;20.60;42.80
42147;DHT22;27815;43.410;11.852;2023-04-01T12:40:20;20.80;40.60
42147;DHT22;27815;43.410;11.852;2023-04-01T12:52:50;21.00;39.40
42147;DHT22;27815;43.410;11.852;2023-04-01T13:15:26;21.40;37.40
42147;DHT22;27815;43.410;11.852;2023-04-01T13:19:02;21.10;37.30
42147;DHT22;27815;43.410;11.852;2023-04-01T13:27:21;21.10;36.60
42147;DHT22;27815;43.410;11.852;2023-04-01T13:31:28;21.00;35.90
42147;DHT22;27815;43.410;11.852;2023-04-01T13:35:56;20.80;36.40
42147;DHT22;27815;43.410;11.852;2023-04-01T13:44:20;20.80;35.90
42147;DHT22;27815;43.410;11.852;2023-04-01T13:48:28;20.90;35.60
42147;DHT22;27815;43.410;11.852;2023-04-01T13:53:18;21.00;36.00
42147;DHT22;27815;43.410;11.852;2023-04-01T14:06:02;20.90;35.50
42147;DHT22;27815;43.410;11.852;2023-04-01T14:14:35;20.80;34.70
42147;DHT22;27815;43.410;11.852;2023-04-01T14:18:45;21.00;35.30
42147;DHT22;27815;43.410;11.852;2023-04-01T14:22:55;21.00;34.80
42147;DHT22;27815;43.410;11.852;2023-04-01T14:51:52;20.80;33.90
42147;DHT22;27815;43.410;11.852;2023-04-01T14:55:58;20.70;33.20
42147;DHT22;27815;43.410;11.852;2023-04-01T15:04:28;20.60;33.00
42147;DHT22;27815;43.410;11.852;2023-04-01T15:08:44;20.70;32.40
42147;DHT22;27815;43.410;11.852;2023-04-01T15:17:05;20.50;33.00
42147;DHT22;27815;43.410;11.852;2023-04-01T15:25:57;20.40;33.30
42147;DHT22;27815;43.410;11.852;2023-04-01T15:51:51;19.90;32.90
42147;DHT22;27815;43.410;11.852;2023-04-01T16:04:57;19.60;34.30
42147;DHT22;27815;43.410;11.852;2023-04-01T16:10:05;19.50;34.90
42147;DHT22;27815;43.410;11.852;2023-04-01T16:13:48;19.90;35.10
42147;DHT22;27815;43.410;11.852;2023-04-01T16:18:18;20.00;35.40
42147;DHT22;27815;43.410;11.852;2023-04-01T16:26:48;19.90;36.20
42147;DHT22;27815;43.410;11.852;2023-04-01T16:43:23;19.50;38.90
42147;DHT22;27815;43.410;11.852;2023-04-01T16:48:11;19.10;39.80
42147;DHT22;27815;43.410;11.852;2023-04-01T16:51:54;19.20;40.20
42147;DHT22;27815;43.410;11.852;2023-04-01T17:00:22;20.00;40.20
42147;DHT22;27815;43.410;11.852;2023-04-01T17:04:37;20.10;40.30
42147;DHT22;27815;43.410;11.852;2023-04-01T17:18:02;19.50;41.30
42147;DHT22;27815;43.410;11.852;2023-04-01T17:34:12;18.10;42.70
42147;DHT22;27815;43.410;11.852;2023-04-01T17:42:40;17.10;43.70
42147;DHT22;27815;43.410;11.852;2023-04-01T17:50:53;16.60;44.10
42147;DHT22;27815;43.410;11.852;2023-04-01T17:59:37;16.30;44.50
42147;DHT22;27815;43.410;11.852;2023-04-01T18:37:46;14.60;47.70
42147;DHT22;27815;43.410;11.852;2023-04-01T18:42:57;14.50;48.00
42147;DHT22;27815;43.410;11.852;2023-04-01T19:03:23;14.00;48.60
42147;DHT22;27815;43.410;11.852;2023-04-01T19:28:27;13.20;50.80
42147;DHT22;27815;43.410;11.852;2023-04-01T19:32:36;13.10;51.80
42147;DHT22;27815;43.410;11.852;2023-04-01T19:36:49;13.00;52.60
42147;DHT22;27815;43.410;11.852;2023-04-01T19:45:14;12.80;53.40
42147;DHT22;27815;43.410;11.852;2023-04-01T20:01:57;12.50;55.00
42147;DHT22;27815;43.410;11.852;2023-04-01T20:06:04;12.50;54.80
42147;DHT22;27815;43.410;11.852;2023-04-01T20:18:15;12.50;54.10
42147;DHT22;27815;43.410;11.852;2023-04-01T20:26:41;12.50;54.70
42147;DHT22;27815;43.410;11.852;2023-04-01T20:39:03;12.00;57.80
42147;DHT22;27815;43.410;11.852;2023-04-01T21:09:53;11.80;58.40
42147;DHT22;27815;43.410;11.852;2023-04-01T21:14:32;11.70;58.50
42147;DHT22;27815;43.410;11.852;2023-04-01T21:35:11;11.40;58.50
42147;DHT22;27815;43.410;11.852;2023-04-01T21:52:42;11.20;58.60
42147;DHT22;27815;43.410;11.852;2023-04-01T22:05:46;11.50;58.50
42147;DHT22;27815;43.410;11.852;2023-04-01T22:23:30;11.70;58.30
42147;DHT22;27815;43.410;11.852;2023-04-01T22:31:46;11.80;58.20
42147;DHT22;27815;43.410;11.852;2023-04-01T22:44:51;11.80;58.50
42147;DHT22;27815;43.410;11.852;2023-04-01T22:57:40;11.90;58.60
42147;DHT22;27815;43.410;11.852;2023-04-01T23:01:56;11.90;58.50
42147;DHT22;27815;43.410;11.852;2023-04-01T23:06:32;11.80;58.80
42147;DHT22;27815;43.410;11.852;2023-04-01T23:10:49;11.80;58.90
42147;DHT22;27815;43.410;11.852;2023-04-01T23:15:17;11.80;58.90
42147;DHT22;27815;43.410;11.852;2023-04-01T23:19:24;11.70;59.20
42147;DHT22;27815;43.410;11.852;2023-04-01T23:27:51;11.40;59.70
42147;DHT22;27815;43.410;11.852;2023-04-01T23:31:59;11.10;60.20
42147;DHT22;27815;43.410;11.852;2023-04-01T23:36:12;11.00;60.10
42147;DHT22;27815;43.410;11.852;2023-04-01T23:40:18;10.90;61.00
42147;DHT22;27815;43.410;11.852;2023-04-01T23:44:25;10.60;61.40
42147;DHT22;27815;43.410;11.852;2023-04-01T23:48:41;10.50;61.90
42147;DHT22;27815;43.410;11.852;2023-04-01T23:52:53;10.40;62.50
42147;DHT22;27815;43.410;11.852;2023-04-01T23:56:59;10.30;62.70
